sensor_id;sensor_type;location;lat;lon;timestamp;pressure;altitude;pressure_sealevel;temperature
60615;BMP280;46444;45.590;5.284;2022-08-21T00:01:55;98905.88;;;22.39
60615;BMP280;46444;45.590;5.284;2022-08-21T00:04:21;98887.72;;;22.48
60615;BMP280;46444;45.590;5.284;2022-08-21T00:06:47;98891.44;;;22.52
60615;BMP280;46444;45.590;5.284;2022-08-21T00:09:12;98906.28;;;22.46
60615;BMP280;46444;45.590;5.284;2022-08-21T00:11:39;98891.66;;;22.42
60615;BMP280;46444;45.590;5.284;2022-08-21T00:14:06;98895.38;;;22.24
60615;BMP280;46444;45.590;5.284;2022-08-21T00:16:32;98893.50;;;22.33
60615;BMP280;46444;45.590;5.284;2022-08-21T00:18:57;98883.06;;;22.27
60615;BMP280;46444;45.590;5.284;2022-08-21T00:21:23;98891.41;;;22.30
60615;BMP280;46444;45.590;5.284;2022-08-21T00:23:48;98880.63;;;22.25
60615;BMP280;46444;45.590;5.284;2022-08-21T00:26:13;98887.56;;;22.09
60615;BMP280;46444;45.590;5.284;2022-08-21T00:28:39;98875.94;;;22.17
60615;BMP280;46444;45.590;5.284;2022-08-21T00:31:05;98882.00;;;22.14
60615;BMP280;46444;45.590;5.284;2022-08-21T00:33:33;98880.47;;;22.22
60615;BMP280;46444;45.590;5.284;2022-08-21T00:36:09;98888.25;;;22.15
60615;BMP280;46444;45.590;5.284;2022-08-21T00:38:41;98892.09;;;22.14
60615;BMP280;46444;45.590;5.284;2022-08-21T00:41:42;98883.22;;;22.08
60615;BMP280;46444;45.590;5.284;2022-08-21T00:44:14;98878.03;;;21.98
60615;BMP280;46444;45.590;5.284;2022-08-21T00:46:44;98873.03;;;21.92
60615;BMP280;46444;45.590;5.284;2022-08-21T00:49:19;98883.97;;;22.00
60615;BMP280;46444;45.590;5.284;2022-08-21T00:51:50;98871.25;;;21.87
60615;BMP280;46444;45.590;5.284;2022-08-21T00:54:21;98877.41;;;22.01
60615;BMP280;46444;45.590;5.284;2022-08-21T00:56:50;98870.63;;;22.12
60615;BMP280;46444;45.590;5.284;2022-08-21T00:59:19;98864.69;;;21.88
60615;BMP280;46444;45.590;5.284;2022-08-21T01:01:49;98878.28;;;22.10
60615;BMP280;46444;45.590;5.284;2022-08-21T01:04:14;98879.41;;;22.09
60615;BMP280;46444;45.590;5.284;2022-08-21T01:06:41;98878.78;;;22.12
60615;BMP280;46444;45.590;5.284;2022-08-21T01:09:07;98878.03;;;22.20
60615;BMP280;46444;45.590;5.284;2022-08-21T01:11:32;98874.16;;;21.91
60615;BMP280;46444;45.590;5.284;2022-08-21T01:13:57;98878.09;;;22.07
60615;BMP280;46444;45.590;5.284;2022-08-21T01:16:23;98876.19;;;22.07
60615;BMP280;46444;45.590;5.284;2022-08-21T01:18:50;98862.50;;;21.99
60615;BMP280;46444;45.590;5.284;2022-08-21T01:21:20;98867.03;;;22.03
60615;BMP280;46444;45.590;5.284;2022-08-21T01:23:49;98866.94;;;21.95
60615;BMP280;46444;45.590;5.284;2022-08-21T01:26:18;98870.19;;;21.97
60615;BMP280;46444;45.590;5.284;2022-08-21T01:31:29;98859.94;;;21.80
60615;BMP280;46444;45.590;5.284;2022-08-21T01:33:55;98869.66;;;21.73
60615;BMP280;46444;45.590;5.284;2022-08-21T01:36:22;98865.84;;;21.74
60615;BMP280;46444;45.590;5.284;2022-08-21T01:38:48;98869.66;;;21.73
60615;BMP280;46444;45.590;5.284;2022-08-21T01:41:14;98868.56;;;21.74
60615;BMP280;46444;45.590;5.284;2022-08-21T01:43:40;98866.03;;;21.77
60615;BMP280;46444;45.590;5.284;2022-08-21T01:46:06;98868.25;;;21.75
60615;BMP280;46444;45.590;5.284;2022-08-21T01:48:32;98852.16;;;21.52
60615;BMP280;46444;45.590;5.284;2022-08-21T01:50:57;98856.63;;;21.34
60615;BMP280;46444;45.590;5.284;2022-08-21T01:53:23;98851.41;;;21.24
60615;BMP280;46444;45.590;5.284;2022-08-21T01:55:49;98853.19;;;21.29
60615;BMP280;46444;45.590;5.284;2022-08-21T01:58:14;98838.28;;;21.40
60615;BMP280;46444;45.590;5.284;2022-08-21T02:00:40;98840.59;;;21.46
60615;BMP280;46444;45.590;5.284;2022-08-21T02:03:07;98828.81;;;21.37
60615;BMP280;46444;45.590;5.284;2022-08-21T02:05:32;98828.03;;;21.23
60615;BMP280;46444;45.590;5.284;2022-08-21T02:07:57;98834.00;;;20.98
60615;BMP280;46444;45.590;5.284;2022-08-21T02:10:26;98837.63;;;21.07
60615;BMP280;46444;45.590;5.284;2022-08-21T02:12:53;98825.53;;;21.13
60615;BMP280;46444;45.590;5.284;2022-08-21T02:15:18;98827.44;;;20.86
60615;BMP280;46444;45.590;5.284;2022-08-21T02:17:46;98829.06;;;21.00
60615;BMP280;46444;45.590;5.284;2022-08-21T02:20:48;98831.50;;;20.88
60615;BMP280;46444;45.590;5.284;2022-08-21T02:23:08;98825.25;;;21.01
60615;BMP280;46444;45.590;5.284;2022-08-21T02:25:34;98826.25;;;21.05
60615;BMP280;46444;45.590;5.284;2022-08-21T02:28:04;98831.25;;;21.12
60615;BMP280;46444;45.590;5.284;2022-08-21T02:30:33;98822.81;;;21.13
60615;BMP280;46444;45.590;5.284;2022-08-21T02:32:59;98823.44;;;21.10
60615;BMP280;46444;45.590;5.284;2022-08-21T02:35:25;98817.38;;;21.13
60615;BMP280;46444;45.590;5.284;2022-08-21T02:38:00;98823.53;;;21.05
60615;BMP280;46444;45.590;5.284;2022-08-21T02:40:30;98819.22;;;20.91
60615;BMP280;46444;45.590;5.284;2022-08-21T02:42:56;98818.91;;;21.06
60615;BMP280;46444;45.590;5.284;2022-08-21T02:45:23;98815.28;;;21.10
60615;BMP280;46444;45.590;5.284;2022-08-21T02:47:54;98810.06;;;21.00
60615;BMP280;46444;45.590;5.284;2022-08-21T02:50:21;98820.94;;;21.00
60615;BMP280;46444;45.590;5.284;2022-08-21T02:52:47;98812.53;;;20.70
60615;BMP280;46444;45.590;5.284;2022-08-21T02:55:12;98813.56;;;20.74
60615;BMP280;46444;45.590;5.284;2022-08-21T02:57:38;98816.75;;;20.76
60615;BMP280;46444;45.590;5.284;2022-08-21T03:00:05;98814.47;;;20.69
60615;BMP280;46444;45.590;5.284;2022-08-21T03:02:30;98819.91;;;20.69
60615;BMP280;46444;45.590;5.284;2022-08-21T03:04:56;98816.88;;;20.57
60615;BMP280;46444;45.590;5.284;2022-08-21T03:07:22;98818.19;;;20.60
60615;BMP280;46444;45.590;5.284;2022-08-21T03:09:47;98817.97;;;20.56
60615;BMP280;46444;45.590;5.284;2022-08-21T03:12:14;98817.13;;;20.42
60615;BMP280;46444;45.590;5.284;2022-08-21T03:14:39;98818.38;;;20.63
60615;BMP280;46444;45.590;5.284;2022-08-21T03:17:05;98818.47;;;20.58
60615;BMP280;46444;45.590;5.284;2022-08-21T03:19:32;98819.16;;;20.64
60615;BMP280;46444;45.590;5.284;2022-08-21T03:21:57;99022.56;;;-9.96
60615;BMP280;46444;45.590;5.284;2022-08-21T03:24:22;98814.75;;;20.54
60615;BMP280;46444;45.590;5.284;2022-08-21T03:26:48;98814.66;;;20.59
60615;BMP280;46444;45.590;5.284;2022-08-21T03:29:13;98813.03;;;20.58
60615;BMP280;46444;45.590;5.284;2022-08-21T03:31:39;98812.03;;;20.54
60615;BMP280;46444;45.590;5.284;2022-08-21T03:34:04;98818.66;;;20.48
60615;BMP280;46444;45.590;5.284;2022-08-21T03:36:30;98809.53;;;20.44
60615;BMP280;46444;45.590;5.284;2022-08-21T03:38:55;98817.53;;;20.36
60615;BMP280;46444;45.590;5.284;2022-08-21T03:41:20;98813.09;;;20.40
60615;BMP280;46444;45.590;5.284;2022-08-21T03:43:46;98813.31;;;20.43
60615;BMP280;46444;45.590;5.284;2022-08-21T03:46:11;98818.34;;;20.36
60615;BMP280;46444;45.590;5.284;2022-08-21T03:48:37;98813.53;;;20.33
60615;BMP280;46444;45.590;5.284;2022-08-21T03:51:03;98819.81;;;20.29
60615;BMP280;46444;45.590;5.284;2022-08-21T03:53:29;98820.72;;;20.24
60615;BMP280;46444;45.590;5.284;2022-08-21T03:55:55;98824.75;;;20.27
60615;BMP280;46444;45.590;5.284;2022-08-21T03:58:23;98818.78;;;20.11
60615;BMP280;46444;45.590;5.284;2022-08-21T04:00:51;98815.50;;;20.14
60615;BMP280;46444;45.590;5.284;2022-08-21T04:03:17;98817.69;;;20.12
60615;BMP280;46444;45.590;5.284;2022-08-21T04:05:43;98820.69;;;20.11
60615;BMP280;46444;45.590;5.284;2022-08-21T04:08:10;98814.47;;;20.10
60615;BMP280;46444;45.590;5.284;2022-08-21T04:10:37;98823.41;;;19.92
60615;BMP280;46444;45.590;5.284;2022-08-21T04:13:04;98818.84;;;20.06
60615;BMP280;46444;45.590;5.284;2022-08-21T04:15:30;98821.50;;;20.11
60615;BMP280;46444;45.590;5.284;2022-08-21T04:17:55;98824.66;;;20.00
60615;BMP280;46444;45.590;5.284;2022-08-21T04:20:21;98825.22;;;19.97
60615;BMP280;46444;45.590;5.284;2022-08-21T04:22:47;98837.47;;;19.94
60615;BMP280;46444;45.590;5.284;2022-08-21T04:25:15;98821.97;;;19.81
60615;BMP280;46444;45.590;5.284;2022-08-21T04:27:40;98830.06;;;20.00
60615;BMP280;46444;45.590;5.284;2022-08-21T04:30:07;98836.16;;;19.92
60615;BMP280;46444;45.590;5.284;2022-08-21T04:32:34;98829.75;;;19.69
60615;BMP280;46444;45.590;5.284;2022-08-21T04:35:02;98838.22;;;19.63
60615;BMP280;46444;45.590;5.284;2022-08-21T04:37:29;98827.75;;;19.75
60615;BMP280;46444;45.590;5.284;2022-08-21T04:39:54;98838.81;;;19.78
60615;BMP280;46444;45.590;5.284;2022-08-21T04:42:23;98840.88;;;19.86
60615;BMP280;46444;45.590;5.284;2022-08-21T04:44:49;98843.09;;;19.84
60615;BMP280;46444;45.590;5.284;2022-08-21T04:47:14;98848.72;;;19.88
60615;BMP280;46444;45.590;5.284;2022-08-21T04:49:41;98847.31;;;19.90
60615;BMP280;46444;45.590;5.284;2022-08-21T04:52:06;98850.13;;;19.85
60615;BMP280;46444;45.590;5.284;2022-08-21T04:54:32;98844.63;;;19.72
60615;BMP280;46444;45.590;5.284;2022-08-21T04:57:04;98853.84;;;19.71
60615;BMP280;46444;45.590;5.284;2022-08-21T04:59:33;98858.47;;;19.70
60615;BMP280;46444;45.590;5.284;2022-08-21T05:02:01;98853.84;;;19.71
60615;BMP280;46444;45.590;5.284;2022-08-21T05:04:29;98858.97;;;19.54
60615;BMP280;46444;45.590;5.284;2022-08-21T05:06:57;98862.41;;;19.59
60615;BMP280;46444;45.590;5.284;2022-08-21T05:09:25;98856.41;;;19.62
60615;BMP280;46444;45.590;5.284;2022-08-21T05:11:51;98862.06;;;19.66
60615;BMP280;46444;45.590;5.284;2022-08-21T05:14:17;98862.78;;;19.71
60615;BMP280;46444;45.590;5.284;2022-08-21T05:16:44;98870.28;;;19.79
60615;BMP280;46444;45.590;5.284;2022-08-21T05:19:10;98870.84;;;19.76
60615;BMP280;46444;45.590;5.284;2022-08-21T05:21:37;98876.41;;;19.85
60615;BMP280;46444;45.590;5.284;2022-08-21T05:24:03;98874.16;;;19.73
60615;BMP280;46444;45.590;5.284;2022-08-21T05:26:28;98865.94;;;19.60
60615;BMP280;46444;45.590;5.284;2022-08-21T05:28:55;98873.31;;;19.54
60615;BMP280;46444;45.590;5.284;2022-08-21T05:31:20;98878.53;;;19.69
60615;BMP280;46444;45.590;5.284;2022-08-21T05:33:45;98879.13;;;19.66
60615;BMP280;46444;45.590;5.284;2022-08-21T05:36:11;98877.97;;;19.54
60615;BMP280;46444;45.590;5.284;2022-08-21T05:38:37;98879.31;;;19.33
60615;BMP280;46444;45.590;5.284;2022-08-21T05:41:03;98884.50;;;19.29
60615;BMP280;46444;45.590;5.284;2022-08-21T05:43:28;98881.06;;;19.42
60615;BMP280;46444;45.590;5.284;2022-08-21T05:45:53;98885.22;;;19.40
60615;BMP280;46444;45.590;5.284;2022-08-21T05:48:21;98889.38;;;19.33
60615;BMP280;46444;45.590;5.284;2022-08-21T05:50:48;98891.78;;;19.34
60615;BMP280;46444;45.590;5.284;2022-08-21T05:53:16;98891.53;;;19.30
60615;BMP280;46444;45.590;5.284;2022-08-21T05:55:48;98892.63;;;19.29
60615;BMP280;46444;45.590;5.284;2022-08-21T05:58:16;98887.13;;;19.58
60615;BMP280;46444;45.590;5.284;2022-08-21T06:00:43;98891.81;;;19.71
60615;BMP280;46444;45.590;5.284;2022-08-21T06:03:17;98890.56;;;19.63
60615;BMP280;46444;45.590;5.284;2022-08-21T06:05:42;98896.84;;;19.77
60615;BMP280;46444;45.590;5.284;2022-08-21T06:08:08;98898.72;;;19.82
60615;BMP280;46444;45.590;5.284;2022-08-21T06:10:34;98901.31;;;19.87
60615;BMP280;46444;45.590;5.284;2022-08-21T06:12:59;98897.38;;;19.98
60615;BMP280;46444;45.590;5.284;2022-08-21T06:15:24;98902.59;;;20.13
60615;BMP280;46444;45.590;5.284;2022-08-21T06:17:52;98898.72;;;20.19
60615;BMP280;46444;45.590;5.284;2022-08-21T06:20:18;98901.13;;;20.20
60615;BMP280;46444;45.590;5.284;2022-08-21T06:22:43;98894.28;;;20.23
60615;BMP280;46444;45.590;5.284;2022-08-21T06:25:08;98887.78;;;20.37
60615;BMP280;46444;45.590;5.284;2022-08-21T06:27:34;98875.84;;;20.38
60615;BMP280;46444;45.590;5.284;2022-08-21T06:29:59;98873.22;;;20.33
60615;BMP280;46444;45.590;5.284;2022-08-21T06:32:25;98872.28;;;20.24
60615;BMP280;46444;45.590;5.284;2022-08-21T06:34:50;98886.25;;;20.18
60615;BMP280;46444;45.590;5.284;2022-08-21T06:37:16;98878.66;;;20.33
60615;BMP280;46444;45.590;5.284;2022-08-21T06:39:41;98885.53;;;20.44
60615;BMP280;46444;45.590;5.284;2022-08-21T06:42:13;98877.47;;;20.39
60615;BMP280;46444;45.590;5.284;2022-08-21T06:44:38;98872.63;;;20.36
60615;BMP280;46444;45.590;5.284;2022-08-21T06:47:04;98870.44;;;20.38
60615;BMP280;46444;45.590;5.284;2022-08-21T06:49:29;98870.63;;;20.42
60615;BMP280;46444;45.590;5.284;2022-08-21T06:51:54;98871.06;;;20.49
60615;BMP280;46444;45.590;5.284;2022-08-21T06:54:20;98872.78;;;20.58
60615;BMP280;46444;45.590;5.284;2022-08-21T06:56:45;98870.75;;;20.64
60615;BMP280;46444;45.590;5.284;2022-08-21T06:59:11;98877.91;;;20.73
60615;BMP280;46444;45.590;5.284;2022-08-21T07:01:37;98868.25;;;20.67
60615;BMP280;46444;45.590;5.284;2022-08-21T07:04:18;98874.28;;;20.64
60615;BMP280;46444;45.590;5.284;2022-08-21T07:06:45;98876.91;;;20.69
60615;BMP280;46444;45.590;5.284;2022-08-21T07:09:14;98876.91;;;20.69
60615;BMP280;46444;45.590;5.284;2022-08-21T07:11:45;98877.50;;;20.66
60615;BMP280;46444;45.590;5.284;2022-08-21T07:14:13;98872.09;;;20.80
60615;BMP280;46444;45.590;5.284;2022-08-21T07:16:39;98875.59;;;20.67
60615;BMP280;46444;45.590;5.284;2022-08-21T07:19:06;98879.22;;;20.62
60615;BMP280;46444;45.590;5.284;2022-08-21T07:21:34;98876.72;;;20.79
60615;BMP280;46444;45.590;5.284;2022-08-21T07:24:06;98862.06;;;20.80
60615;BMP280;46444;45.590;5.284;2022-08-21T07:26:31;98867.88;;;20.87
60615;BMP280;46444;45.590;5.284;2022-08-21T07:28:57;98852.31;;;20.93
60615;BMP280;46444;45.590;5.284;2022-08-21T07:31:24;98855.94;;;21.02
60615;BMP280;46444;45.590;5.284;2022-08-21T07:33:49;98856.53;;;20.99
60615;BMP280;46444;45.590;5.284;2022-08-21T07:36:15;98854.03;;;21.02
60615;BMP280;46444;45.590;5.284;2022-08-21T07:38:41;98864.78;;;21.07
60615;BMP280;46444;45.590;5.284;2022-08-21T07:41:14;98859.78;;;21.01
60615;BMP280;46444;45.590;5.284;2022-08-21T07:43:40;98853.53;;;21.14
60615;BMP280;46444;45.590;5.284;2022-08-21T07:46:05;98861.97;;;21.12
60615;BMP280;46444;45.590;5.284;2022-08-21T07:48:31;98852.22;;;21.25
60615;BMP280;46444;45.590;5.284;2022-08-21T07:51:04;98856.00;;;21.24
60615;BMP280;46444;45.590;5.284;2022-08-21T07:53:31;98857.66;;;21.11
60615;BMP280;46444;45.590;5.284;2022-08-21T07:55:59;98857.84;;;21.28
60615;BMP280;46444;45.590;5.284;2022-08-21T07:58:24;98855.06;;;21.42
60615;BMP280;46444;45.590;5.284;2022-08-21T08:00:50;98857.81;;;21.42
60615;BMP280;46444;45.590;5.284;2022-08-21T08:03:15;98858.22;;;21.49
60615;BMP280;46444;45.590;5.284;2022-08-21T08:05:41;98864.06;;;21.42
60615;BMP280;46444;45.590;5.284;2022-08-21T08:08:07;98860.84;;;21.40
60615;BMP280;46444;45.590;5.284;2022-08-21T08:10:34;98867.50;;;21.34
60615;BMP280;46444;45.590;5.284;2022-08-21T08:13:01;98858.59;;;21.56
60615;BMP280;46444;45.590;5.284;2022-08-21T08:15:27;98868.28;;;21.48
60615;BMP280;46444;45.590;5.284;2022-08-21T08:17:55;98857.00;;;21.55
60615;BMP280;46444;45.590;5.284;2022-08-21T08:20:23;98854.94;;;21.60
60615;BMP280;46444;45.590;5.284;2022-08-21T08:22:52;98844.66;;;21.71
60615;BMP280;46444;45.590;5.284;2022-08-21T08:25:43;98846.19;;;21.63
60615;BMP280;46444;45.590;5.284;2022-08-21T08:28:37;98840.88;;;21.58
60615;BMP280;46444;45.590;5.284;2022-08-21T08:31:05;98838.63;;;21.74
60615;BMP280;46444;45.590;5.284;2022-08-21T08:34:30;98840.41;;;21.78
60615;BMP280;46444;45.590;5.284;2022-08-21T08:36:58;98837.47;;;21.88
60615;BMP280;46444;45.590;5.284;2022-08-21T08:39:24;98830.53;;;21.82
60615;BMP280;46444;45.590;5.284;2022-08-21T08:41:58;98830.50;;;21.96
60615;BMP280;46444;45.590;5.284;2022-08-21T08:44:27;98824.28;;;21.82
60615;BMP280;46444;45.590;5.284;2022-08-21T08:46:59;98817.38;;;21.98
60615;BMP280;46444;45.590;5.284;2022-08-21T08:49:37;98819.28;;;21.97
60615;BMP280;46444;45.590;5.284;2022-08-21T08:52:30;98807.84;;;22.09
60615;BMP280;46444;45.590;5.284;2022-08-21T08:55:36;98799.22;;;22.15
60615;BMP280;46444;45.590;5.284;2022-08-21T08:58:38;68090.63;;;-139.05
60615;BMP280;46444;45.590;5.284;2022-08-21T09:01:17;68090.63;;;-139.05
60615;BMP280;46444;45.590;5.284;2022-08-21T09:04:27;68090.63;;;-139.05
60615;BMP280;46444;45.590;5.284;2022-08-21T09:07:31;98787.38;;;22.14
60615;BMP280;46444;45.590;5.284;2022-08-21T09:17:03;98807.25;;;22.42
60615;BMP280;46444;45.590;5.284;2022-08-21T09:23:33;98799.31;;;22.54
60615;BMP280;46444;45.590;5.284;2022-08-21T09:29:50;98782.19;;;22.62
60615;BMP280;46444;45.590;5.284;2022-08-21T09:32:48;98787.84;;;22.74
60615;BMP280;46444;45.590;5.284;2022-08-21T09:39:04;98778.47;;;22.97
60615;BMP280;46444;45.590;5.284;2022-08-21T09:46:01;98778.47;;;23.06
60615;BMP280;46444;45.590;5.284;2022-08-21T09:49:34;98778.81;;;23.13
60615;BMP280;46444;45.590;5.284;2022-08-21T09:56:33;98773.44;;;23.30
60615;BMP280;46444;45.590;5.284;2022-08-21T10:00:29;98770.72;;;23.38
60615;BMP280;46444;45.590;5.284;2022-08-21T10:03:45;98761.72;;;23.46
60615;BMP280;46444;45.590;5.284;2022-08-21T11:30:36;68090.63;;;-139.05
60615;BMP280;46444;45.590;5.284;2022-08-21T11:43:38;98690.81;;;25.34
60615;BMP280;46444;45.590;5.284;2022-08-21T11:50:16;68090.63;;;-139.05
60615;BMP280;46444;45.590;5.284;2022-08-21T12:04:16;68090.63;;;-139.05
60615;BMP280;46444;45.590;5.284;2022-08-21T12:07:48;68090.63;;;-139.05
60615;BMP280;46444;45.590;5.284;2022-08-21T12:10:58;68090.63;;;-139.05
60615;BMP280;46444;45.590;5.284;2022-08-21T12:47:15;-15742.38;;;-139.05
60615;BMP280;46444;45.590;5.284;2022-08-21T12:50:36;124657.66;;;187.88
60615;BMP280;46444;45.590;5.284;2022-08-21T13:36:11;98633.81;;;27.52
60615;BMP280;46444;45.590;5.284;2022-08-21T13:39:14;98628.16;;;27.60
60615;BMP280;46444;45.590;5.284;2022-08-21T13:42:18;98638.63;;;27.82
60615;BMP280;46444;45.590;5.284;2022-08-21T13:45:27;98623.19;;;27.93
60615;BMP280;46444;45.590;5.284;2022-08-21T13:48:19;98623.19;;;27.93
60615;BMP280;46444;45.590;5.284;2022-08-21T13:50:54;98623.19;;;27.93
60615;BMP280;46444;45.590;5.284;2022-08-21T13:53:30;98621.31;;;28.28
60615;BMP280;46444;45.590;5.284;2022-08-21T13:56:03;98621.31;;;28.28
60615;BMP280;46444;45.590;5.284;2022-08-21T13:58:42;98612.84;;;28.68
60615;BMP280;46444;45.590;5.284;2022-08-21T14:01:28;68090.63;;;-139.05
60615;BMP280;46444;45.590;5.284;2022-08-21T14:04:02;68090.63;;;-139.05
60615;BMP280;46444;45.590;5.284;2022-08-21T14:06:33;68090.63;;;-139.05
60615;BMP280;46444;45.590;5.284;2022-08-21T14:09:07;68090.63;;;-139.05
60615;BMP280;46444;45.590;5.284;2022-08-21T14:11:34;68090.63;;;-139.05
60615;BMP280;46444;45.590;5.284;2022-08-21T14:14:04;68090.63;;;-139.05
60615;BMP280;46444;45.590;5.284;2022-08-21T14:16:53;68090.63;;;-139.05
60615;BMP280;46444;45.590;5.284;2022-08-21T14:19:37;68090.63;;;-139.05
60615;BMP280;46444;45.590;5.284;2022-08-21T14:27:31;68090.63;;;-139.05
60615;BMP280;46444;45.590;5.284;2022-08-21T14:30:03;68090.63;;;-139.05
60615;BMP280;46444;45.590;5.284;2022-08-21T14:32:37;68090.63;;;-139.05
60615;BMP280;46444;45.590;5.284;2022-08-21T14:35:03;68090.63;;;-139.05
60615;BMP280;46444;45.590;5.284;2022-08-21T14:37:29;68090.63;;;-139.05
60615;BMP280;46444;45.590;5.284;2022-08-21T14:39:54;68090.63;;;-139.05
60615;BMP280;46444;45.590;5.284;2022-08-21T14:42:19;68090.63;;;-139.05
60615;BMP280;46444;45.590;5.284;2022-08-21T14:44:45;98610.28;;;33.80
60615;BMP280;46444;45.590;5.284;2022-08-21T14:47:10;98594.88;;;28.89
60615;BMP280;46444;45.590;5.284;2022-08-21T14:49:36;98590.22;;;28.74
60615;BMP280;46444;45.590;5.284;2022-08-21T14:52:02;98576.31;;;28.67
60615;BMP280;46444;45.590;5.284;2022-08-21T14:54:29;98573.78;;;28.59
60615;BMP280;46444;45.590;5.284;2022-08-21T14:56:54;98584.06;;;28.46
60615;BMP280;46444;45.590;5.284;2022-08-21T14:59:21;98583.28;;;28.46
60615;BMP280;46444;45.590;5.284;2022-08-21T15:01:46;98577.06;;;28.33
60615;BMP280;46444;45.590;5.284;2022-08-21T15:04:12;98581.59;;;28.26
60615;BMP280;46444;45.590;5.284;2022-08-21T15:06:37;98586.16;;;28.18
60615;BMP280;46444;45.590;5.284;2022-08-21T15:09:03;98578.88;;;28.10
60615;BMP280;46444;45.590;5.284;2022-08-21T15:11:30;98566.09;;;28.18
60615;BMP280;46444;45.590;5.284;2022-08-21T15:14:00;98563.44;;;28.21
60615;BMP280;46444;45.590;5.284;2022-08-21T15:16:28;98565.75;;;28.19
60615;BMP280;46444;45.590;5.284;2022-08-21T15:18:55;98566.28;;;28.09
60615;BMP280;46444;45.590;5.284;2022-08-21T15:21:21;98568.69;;;28.11
60615;BMP280;46444;45.590;5.284;2022-08-21T15:23:46;98562.47;;;28.14
60615;BMP280;46444;45.590;5.284;2022-08-21T15:26:12;98565.22;;;28.14
60615;BMP280;46444;45.590;5.284;2022-08-21T15:28:39;98567.56;;;27.96
60615;BMP280;46444;45.590;5.284;2022-08-21T15:31:14;98561.63;;;27.94
60615;BMP280;46444;45.590;5.284;2022-08-21T15:33:42;98564.38;;;27.94
60615;BMP280;46444;45.590;5.284;2022-08-21T15:36:08;98556.22;;;27.82
60615;BMP280;46444;45.590;5.284;2022-08-21T15:38:33;98554.69;;;27.85
60615;BMP280;46444;45.590;5.284;2022-08-21T15:40:58;98550.72;;;27.82
60615;BMP280;46444;45.590;5.284;2022-08-21T15:43:27;98548.91;;;27.74
60615;BMP280;46444;45.590;5.284;2022-08-21T15:45:53;98539.88;;;27.74
60615;BMP280;46444;45.590;5.284;2022-08-21T15:48:19;98549.03;;;27.78
60615;BMP280;46444;45.590;5.284;2022-08-21T15:50:45;98551.59;;;27.86
60615;BMP280;46444;45.590;5.284;2022-08-21T15:53:10;98549.63;;;27.71
60615;BMP280;46444;45.590;5.284;2022-08-21T15:55:45;98551.34;;;27.91
60615;BMP280;46444;45.590;5.284;2022-08-21T15:58:29;98547.31;;;28.04
60615;BMP280;46444;45.590;5.284;2022-08-21T16:00:54;98557.78;;;28.14
60615;BMP280;46444;45.590;5.284;2022-08-21T16:03:20;98545.25;;;28.67
60615;BMP280;46444;45.590;5.284;2022-08-21T16:05:47;98556.06;;;28.75
60615;BMP280;46444;45.590;5.284;2022-08-21T16:08:17;98550.34;;;29.41
60615;BMP280;46444;45.590;5.284;2022-08-21T16:10:43;98552.16;;;29.97
60615;BMP280;46444;45.590;5.284;2022-08-21T16:13:36;98549.13;;;30.28
60615;BMP280;46444;45.590;5.284;2022-08-21T16:16:02;98549.13;;;30.28
60615;BMP280;46444;45.590;5.284;2022-08-21T16:18:27;98548.38;;;31.16
60615;BMP280;46444;45.590;5.284;2022-08-21T16:20:52;98546.13;;;31.25
60615;BMP280;46444;45.590;5.284;2022-08-21T16:23:18;98538.63;;;30.96
60615;BMP280;46444;45.590;5.284;2022-08-21T16:25:44;98543.47;;;31.72
60615;BMP280;46444;45.590;5.284;2022-08-21T16:28:13;98531.22;;;32.20
60615;BMP280;46444;45.590;5.284;2022-08-21T16:30:40;68090.63;;;106.51
60615;BMP280;46444;45.590;5.284;2022-08-21T16:33:07;98531.34;;;32.34
60615;BMP280;46444;45.590;5.284;2022-08-21T16:35:35;68090.63;;;-139.05
60615;BMP280;46444;45.590;5.284;2022-08-21T16:38:00;68090.63;;;-139.05
60615;BMP280;46444;45.590;5.284;2022-08-21T16:40:26;98533.59;;;32.79
60615;BMP280;46444;45.590;5.284;2022-08-21T16:42:52;98515.84;;;31.72
60615;BMP280;46444;45.590;5.284;2022-08-21T16:45:19;98526.47;;;31.70
60615;BMP280;46444;45.590;5.284;2022-08-21T16:47:45;98516.63;;;31.33
60615;BMP280;46444;45.590;5.284;2022-08-21T16:50:15;98526.50;;;30.71
60615;BMP280;46444;45.590;5.284;2022-08-21T16:52:41;98509.00;;;30.60
60615;BMP280;46444;45.590;5.284;2022-08-21T16:55:07;98526.22;;;30.50
60615;BMP280;46444;45.590;5.284;2022-08-21T16:57:33;98523.22;;;30.62
60615;BMP280;46444;45.590;5.284;2022-08-21T16:59:59;98520.91;;;30.12
60615;BMP280;46444;45.590;5.284;2022-08-21T17:02:32;98517.38;;;30.12
60615;BMP280;46444;45.590;5.284;2022-08-21T17:04:59;98516.34;;;29.75
60615;BMP280;46444;45.590;5.284;2022-08-21T17:07:26;68090.63;;;-139.05
60615;BMP280;46444;45.590;5.284;2022-08-21T17:09:51;68090.63;;;-139.05
60615;BMP280;46444;45.590;5.284;2022-08-21T17:12:17;68090.63;;;-139.05
60615;BMP280;46444;45.590;5.284;2022-08-21T17:14:42;98512.25;;;29.24
60615;BMP280;46444;45.590;5.284;2022-08-21T17:17:09;98508.69;;;29.23
60615;BMP280;46444;45.590;5.284;2022-08-21T17:19:35;98508.44;;;28.90
60615;BMP280;46444;45.590;5.284;2022-08-21T17:22:01;98523.94;;;28.79
60615;BMP280;46444;45.590;5.284;2022-08-21T17:24:26;98522.22;;;28.56
60615;BMP280;46444;45.590;5.284;2022-08-21T17:26:52;98514.88;;;28.60
60615;BMP280;46444;45.590;5.284;2022-08-21T17:29:24;98509.44;;;28.63
60615;BMP280;46444;45.590;5.284;2022-08-21T17:31:51;98520.00;;;28.80
60615;BMP280;46444;45.590;5.284;2022-08-21T17:34:16;68090.63;;;-139.05
60615;BMP280;46444;45.590;5.284;2022-08-21T17:36:41;68090.63;;;-139.05
60615;BMP280;46444;45.590;5.284;2022-08-21T17:39:07;68090.63;;;-139.05
60615;BMP280;46444;45.590;5.284;2022-08-21T17:41:35;68090.63;;;-139.05
60615;BMP280;46444;45.590;5.284;2022-08-21T17:44:03;68090.63;;;-139.05
60615;BMP280;46444;45.590;5.284;2022-08-21T17:46:31;68090.63;;;-139.05
60615;BMP280;46444;45.590;5.284;2022-08-21T17:48:57;98520.00;;;28.80
60615;BMP280;46444;45.590;5.284;2022-08-21T17:51:22;98521.13;;;27.91
60615;BMP280;46444;45.590;5.284;2022-08-21T17:53:48;98521.84;;;27.88
60615;BMP280;46444;45.590;5.284;2022-08-21T17:56:15;98526.34;;;27.65
60615;BMP280;46444;45.590;5.284;2022-08-21T17:58:55;98531.91;;;27.53
60615;BMP280;46444;45.590;5.284;2022-08-21T18:01:20;98528.09;;;27.58
60615;BMP280;46444;45.590;5.284;2022-08-21T18:03:47;98524.53;;;27.42
60615;BMP280;46444;45.590;5.284;2022-08-21T18:06:13;98522.03;;;27.37